Time;durP1;ratioP1;P1;durP2;ratioP2;P2;SDS_P1;SDS_P2;PMS_P1;PMS_P2;Temp;Humidity;BMP_temperature;BMP_pressure;BME280_temperature;BME280_humidity;BME280_pressure;Samples;Min_cycle;Max_cycle;Signal;HPM_P1;HPM_P2
2021/12/18 00:01:16;;;;;;;5.38;1.60;;;8.40;99.90;;;;;;5013353;28;20026;-75
2021/12/18 00:03:42;;;;;;;7.30;2.15;;;8.40;99.90;;;;;;5013563;28;20022;-76
2021/12/18 00:06:09;;;;;;;6.47;1.98;;;8.40;99.90;;;;;;5012340;28;20025;-75
2021/12/18 00:08:35;;;;;;;4.93;1.67;;;8.40;99.90;;;;;;5017012;28;20049;-76
2021/12/18 00:11:00;;;;;;;6.13;2.05;;;8.50;99.90;;;;;;5015513;28;20037;-75
2021/12/18 00:13:26;;;;;;;7.18;2.25;;;8.50;99.90;;;;;;5015782;28;20021;-76
2021/12/18 00:15:52;;;;;;;5.88;2.05;;;8.50;99.90;;;;;;5017116;28;20037;-75
2021/12/18 00:18:18;;;;;;;6.22;1.90;;;8.50;99.90;;;;;;5015495;28;20068;-75
2021/12/18 00:20:43;;;;;;;7.15;2.05;;;8.50;99.90;;;;;;4999231;28;20049;-75
2021/12/18 00:23:09;;;;;;;7.22;2.40;;;8.50;99.90;;;;;;5016655;28;20125;-76
2021/12/18 00:25:35;;;;;;;9.20;2.17;;;8.50;99.90;;;;;;4999276;28;20462;-76
2021/12/18 00:28:00;;;;;;;6.43;1.83;;;8.50;99.90;;;;;;5016758;28;20107;-75
2021/12/18 00:30:26;;;;;;;5.22;1.80;;;8.40;99.90;;;;;;5016374;28;20496;-75
2021/12/18 00:32:52;;;;;;;6.32;2.05;;;8.40;99.90;;;;;;4998668;28;20025;-75
2021/12/18 00:35:18;;;;;;;4.57;1.52;;;8.40;99.90;;;;;;5016410;28;20104;-76
2021/12/18 00:37:44;;;;;;;8.00;1.85;;;8.40;99.90;;;;;;5016634;28;20121;-75
2021/12/18 00:40:17;;;;;;;8.00;1.80;;;8.40;99.90;;;;;;5016354;28;20024;-75
2021/12/18 00:43:20;;;;;;;8.02;1.75;;;8.40;99.90;;;;;;5016397;28;20438;-75
2021/12/18 00:45:29;;;;;;;6.60;1.90;;;8.40;99.90;;;;;;5015222;28;20129;-75
2021/12/18 00:47:56;;;;;;;6.95;2.50;;;8.40;99.90;;;;;;5016215;28;20030;-76
2021/12/18 00:50:30;;;;;;;6.57;1.83;;;8.40;99.90;;;;;;5015939;28;20061;-76
2021/12/18 00:52:56;;;;;;;6.05;1.67;;;8.40;99.90;;;;;;4998096;28;20054;-76
2021/12/18 00:55:23;;;;;;;6.63;1.98;;;8.50;99.90;;;;;;4998393;28;20033;-76
2021/12/18 00:57:52;;;;;;;5.85;1.67;;;8.50;99.90;;;;;;4998259;28;20068;-76
2021/12/18 01:00:23;;;;;;;7.18;1.67;;;8.50;99.90;;;;;;4998120;28;20498;-76
2021/12/18 01:02:52;;;;;;;6.13;1.50;;;8.40;99.90;;;;;;5016007;28;20470;-76
2021/12/18 01:05:18;;;;;;;8.10;2.22;;;8.50;99.90;;;;;;5015686;28;20029;-76
2021/12/18 01:07:44;;;;;;;5.00;1.85;;;8.50;99.90;;;;;;4997882;28;20037;-76
2021/12/18 01:12:50;;;;;;;4.63;1.17;;;8.40;99.90;;;;;;5015970;28;20046;-75
2021/12/18 01:15:26;;;;;;;6.47;1.73;;;8.40;99.90;;;;;;5015758;28;20026;-76
2021/12/18 01:23:22;;;;;;;5.43;1.95;;;8.40;99.90;;;;;;5016187;28;20036;-76
2021/12/18 01:25:48;;;;;;;4.88;1.45;;;8.40;99.90;;;;;;5013643;28;20081;-75
2021/12/18 01:28:15;;;;;;;7.93;1.25;;;8.40;99.90;;;;;;5015664;28;20026;-76
2021/12/18 01:30:40;;;;;;;5.57;1.50;;;8.40;99.90;;;;;;5015737;28;20149;-76
2021/12/18 01:33:06;;;;;;;5.07;1.77;;;8.40;99.90;;;;;;5013901;28;20064;-76
2021/12/18 01:35:32;;;;;;;6.10;1.85;;;8.40;99.90;;;;;;5015096;28;20030;-75
2021/12/18 01:37:58;;;;;;;5.18;1.42;;;8.40;99.90;;;;;;4997727;28;20046;-76
2021/12/18 01:40:24;;;;;;;4.72;1.52;;;8.40;99.90;;;;;;5015409;28;20464;-76
2021/12/18 01:51:17;;;;;;;6.72;1.23;;;8.40;99.90;;;;;;4942579;28;20119;-76
2021/12/18 01:53:43;;;;;;;4.35;1.38;;;8.40;99.90;;;;;;5007680;28;20084;-76
2021/12/18 01:56:09;;;;;;;4.70;1.00;;;8.40;99.90;;;;;;5015429;28;20113;-76
2021/12/18 01:58:36;;;;;;;3.58;0.90;;;8.40;99.90;;;;;;5014032;28;20117;-76
2021/12/18 02:01:03;;;;;;;3.92;0.93;;;8.40;99.90;;;;;;5014502;28;20037;-76
2021/12/18 02:03:30;;;;;;;2.85;1.10;;;8.30;99.90;;;;;;5014375;28;20030;-76
2021/12/18 02:05:56;;;;;;;3.70;0.90;;;8.30;99.90;;;;;;5014962;28;20049;-76
2021/12/18 02:08:24;;;;;;;2.47;0.60;;;8.40;99.90;;;;;;5014972;28;20026;-76
2021/12/18 02:11:13;;;;;;;1.73;0.47;;;8.30;99.90;;;;;;5014684;28;20025;-76
2021/12/18 02:14:09;;;;;;;4.43;0.50;;;8.30;99.90;;;;;;4997318;28;20080;-76
2021/12/18 02:21:58;;;;;;;2.60;0.85;;;8.30;99.90;;;;;;5014324;28;20575;-75
2021/12/18 02:24:27;;;;;;;4.47;1.08;;;8.30;99.90;;;;;;4996976;28;20047;-76
2021/12/18 02:26:52;;;;;;;3.30;0.88;;;8.30;99.90;;;;;;4996434;28;20041;-76
2021/12/18 02:29:18;;;;;;;5.13;0.98;;;8.30;99.90;;;;;;5015062;28;20503;-76
2021/12/18 02:31:45;;;;;;;3.97;1.20;;;8.30;99.90;;;;;;5013518;28;20021;-76
2021/12/18 02:34:17;;;;;;;4.15;1.20;;;8.30;99.90;;;;;;5012735;28;20049;-76
2021/12/18 02:36:47;;;;;;;4.38;1.13;;;8.30;99.90;;;;;;5012172;28;20046;-76
2021/12/18 02:39:42;;;;;;;4.50;1.23;;;8.30;99.90;;;;;;5014165;28;20060;-76
2021/12/18 02:42:10;;;;;;;3.92;0.98;;;8.30;99.90;;;;;;5012673;28;20494;-76
2021/12/18 02:44:39;;;;;;;5.68;1.30;;;8.30;99.90;;;;;;4996078;28;20057;-76
2021/12/18 02:47:05;;;;;;;;;;;8.30;99.90;;;;;;5014414;28;20490;-75
2021/12/18 02:49:30;;;;;;;6.25;1.00;;;8.30;99.90;;;;;;4996436;28;19905;-76
2021/12/18 02:51:56;;;;;;;5.43;1.20;;;8.20;99.90;;;;;;4995950;28;20038;-76
2021/12/18 02:54:21;;;;;;;5.20;1.35;;;8.20;99.90;;;;;;5012746;28;20053;-76
2021/12/18 02:56:47;;;;;;;4.85;1.02;;;8.20;99.90;;;;;;4996572;28;20022;-76
2021/12/18 02:59:12;;;;;;;5.40;1.15;;;8.20;99.90;;;;;;5014004;28;20180;-76
2021/12/18 03:01:40;;;;;;;5.55;1.58;;;8.20;99.90;;;;;;5013998;28;20415;-76
2021/12/18 03:04:43;;;;;;;5.50;1.30;;;8.20;99.90;;;;;;5013868;28;20026;-76
2021/12/18 03:07:03;;;;;;;4.28;0.90;;;8.20;99.90;;;;;;5009982;28;20037;-76
2021/12/18 03:09:54;;;;;;;7.15;1.55;;;8.20;99.90;;;;;;5013986;28;20506;-76
2021/12/18 03:25:38;;;;;;;7.10;1.73;;;8.10;99.90;;;;;;5013762;28;20030;-76
2021/12/18 03:28:05;;;;;;;6.35;2.15;;;8.10;99.90;;;;;;5013881;28;20032;-76
2021/12/18 03:30:33;;;;;;;4.55;1.40;;;8.10;99.90;;;;;;5013822;28;20061;-76
2021/12/18 03:32:59;;;;;;;5.05;1.98;;;8.10;99.90;;;;;;5013686;28;20101;-76
2021/12/18 03:35:25;;;;;;;5.35;1.55;;;8.10;99.90;;;;;;5012776;28;20033;-76
2021/12/18 03:37:51;;;;;;;6.75;1.95;;;8.10;99.90;;;;;;5012523;28;20029;-76
2021/12/18 03:40:20;;;;;;;5.93;1.23;;;8.10;99.90;;;;;;4992610;28;20030;-75
2021/12/18 03:42:46;;;;;;;4.93;1.70;;;8.10;99.90;;;;;;5008442;28;20505;-76
2021/12/18 03:45:14;;;;;;;4.38;0.85;;;8.10;99.90;;;;;;4998881;28;20029;-76
2021/12/18 03:47:40;;;;;;;6.40;1.50;;;8.10;99.90;;;;;;5017314;28;20040;-76
2021/12/18 03:50:06;;;;;;;4.30;1.05;;;8.10;99.90;;;;;;4999888;28;20018;-76
2021/12/18 03:52:32;;;;;;;7.20;1.13;;;8.00;99.90;;;;;;5016982;28;20041;-76
2021/12/18 03:54:59;;;;;;;5.53;1.20;;;8.00;99.90;;;;;;4999661;28;20034;-76
2021/12/18 03:57:25;;;;;;;3.55;1.00;;;8.00;99.90;;;;;;4999942;28;20482;-76
2021/12/18 03:59:50;;;;;;;6.45;1.00;;;8.00;99.90;;;;;;5015782;28;20163;-76
2021/12/18 04:02:16;;;;;;;5.53;1.00;;;8.00;99.90;;;;;;5017074;28;20034;-76
2021/12/18 04:04:41;;;;;;;4.15;1.02;;;7.90;99.90;;;;;;5008046;28;20379;-76
2021/12/18 04:07:08;;;;;;;2.25;0.50;;;7.90;99.90;;;;;;5016966;28;20026;-76
2021/12/18 04:09:34;;;;;;;3.65;0.63;;;7.90;99.90;;;;;;5016415;28;20018;-76
2021/12/18 04:11:59;;;;;;;3.15;0.38;;;7.90;99.90;;;;;;5016431;28;20022;-76
2021/12/18 04:14:25;;;;;;;5.43;0.80;;;7.80;99.90;;;;;;5015636;28;20029;-76
2021/12/18 04:16:50;;;;;;;1.63;0.30;;;7.80;99.90;;;;;;5016955;28;20026;-75
2021/12/18 04:19:16;;;;;;;1.73;0.50;;;7.80;99.90;;;;;;4999798;28;20030;-75
2021/12/18 04:21:42;;;;;;;2.65;0.15;;;7.80;99.90;;;;;;4998718;28;20022;-76
2021/12/18 04:24:08;;;;;;;2.67;0.52;;;7.80;99.90;;;;;;4998020;28;20030;-78
2021/12/18 04:26:35;;;;;;;2.25;0.50;;;7.80;99.90;;;;;;5015307;28;20034;-76
2021/12/18 04:29:05;;;;;;;1.58;0.35;;;7.70;99.90;;;;;;4998983;28;20026;-76
2021/12/18 04:31:31;;;;;;;5.03;0.40;;;7.70;99.90;;;;;;5017340;28;20037;-76
2021/12/18 04:33:57;;;;;;;1.90;0.45;;;7.80;99.90;;;;;;5015688;28;20018;-76
2021/12/18 04:36:22;;;;;;;3.40;0.52;;;7.80;99.90;;;;;;5016571;28;20052;-76
2021/12/18 04:38:49;;;;;;;3.97;0.20;;;7.70;99.90;;;;;;5016553;28;20033;-76
2021/12/18 04:41:23;;;;;;;4.38;0.30;;;7.70;99.90;;;;;;5015075;28;20026;-75
2021/12/18 04:43:50;;;;;;;2.90;0.30;;;7.70;99.90;;;;;;5015128;28;20021;-76
2021/12/18 04:46:15;;;;;;;1.85;0.17;;;7.70;99.90;;;;;;5016748;28;20028;-75
2021/12/18 04:48:41;;;;;;;2.42;0.32;;;7.70;99.90;;;;;;5011727;28;20394;-76
2021/12/18 04:51:07;;;;;;;1.45;0.20;;;7.60;99.90;;;;;;4998536;28;20096;-76
2021/12/18 04:53:32;;;;;;;0.98;0.05;;;7.60;99.90;;;;;;4997947;28;20091;-76
2021/12/18 04:55:58;;;;;;;1.33;0.10;;;7.60;99.90;;;;;;5016370;28;20036;-76
2021/12/18 04:58:23;;;;;;;0.63;0.00;;;7.60;99.90;;;;;;5015703;28;20156;-75
2021/12/18 05:00:49;;;;;;;1.75;0.10;;;7.60;99.90;;;;;;5015970;28;20022;-76
2021/12/18 05:03:17;;;;;;;0.65;0.00;;;7.60;99.90;;;;;;5014820;28;20485;-76
2021/12/18 05:05:43;;;;;;;0.98;0.00;;;7.60;99.90;;;;;;5014832;28;20025;-75
2021/12/18 05:08:09;;;;;;;1.17;0.10;;;7.50;99.90;;;;;;5015712;28;20022;-76
2021/12/18 05:10:35;;;;;;;1.70;0.10;;;7.60;99.90;;;;;;4997959;28;20057;-76
2021/12/18 05:13:00;;;;;;;0.93;0.10;;;7.50;99.90;;;;;;5015480;28;20030;-76
2021/12/18 05:15:26;;;;;;;1.70;0.00;;;7.50;99.90;;;;;;5015157;28;20030;-75
2021/12/18 05:17:52;;;;;;;1.98;0.22;;;7.50;99.90;;;;;;5015864;28;20034;-75
2021/12/18 05:20:17;;;;;;;2.17;0.30;;;7.40;99.90;;;;;;4997679;28;20471;-75
2021/12/18 05:22:43;;;;;;;2.75;0.08;;;7.40;99.90;;;;;;4997965;28;20022;-75
2021/12/18 05:25:09;;;;;;;0.55;0.10;;;7.40;99.90;;;;;;5015269;28;20025;-75
2021/12/18 05:27:36;;;;;;;0.88;0.10;;;7.40;99.90;;;;;;5015253;28;20029;-76
2021/12/18 05:30:06;;;;;;;1.38;0.08;;;7.40;99.90;;;;;;5015271;28;20018;-76
2021/12/18 05:32:31;;;;;;;1.83;0.10;;;7.40;99.90;;;;;;4997365;28;20033;-76
2021/12/18 05:34:57;;;;;;;1.27;0.30;;;7.40;99.90;;;;;;5015259;28;20026;-76
2021/12/18 05:39:51;;;;;;;6.45;0.10;;;7.40;99.90;;;;;;5015540;28;20061;-76
2021/12/18 05:42:17;;;;;;;1.73;0.00;;;7.40;99.90;;;;;;5015226;28;20089;-76
2021/12/18 05:44:43;;;;;;;0.50;0.00;;;7.30;99.90;;;;;;5015422;28;20499;-76
2021/12/18 05:47:09;;;;;;;1.38;0.00;;;7.30;99.90;;;;;;5015396;28;20022;-75
2021/12/18 05:49:35;;;;;;;0.70;0.00;;;7.30;99.90;;;;;;4997197;28;20025;-76
2021/12/18 05:52:01;;;;;;;2.70;0.10;;;7.20;99.90;;;;;;4997171;28;20572;-76
2021/12/18 05:54:27;;;;;;;7.63;0.00;;;7.30;99.90;;;;;;5015097;28;20368;-76
2021/12/18 05:56:52;;;;;;;1.00;0.00;;;7.20;99.90;;;;;;5014886;28;20505;-76
2021/12/18 05:59:18;;;;;;;0.63;0.17;;;7.20;99.90;;;;;;4997330;28;20030;-76
2021/12/18 06:01:44;;;;;;;0.77;0.08;;;7.20;99.90;;;;;;5015528;28;20025;-76
2021/12/18 06:04:09;;;;;;;0.57;0.00;;;7.20;99.90;;;;;;4997111;28;20026;-77
2021/12/18 06:06:35;;;;;;;0.47;0.00;;;7.20;99.90;;;;;;4997367;28;20021;-76
2021/12/18 06:09:00;;;;;;;0.52;0.08;;;7.20;99.90;;;;;;4996770;28;20129;-76
2021/12/18 06:11:28;;;;;;;0.55;0.00;;;7.20;99.90;;;;;;5014766;28;20022;-76
2021/12/18 06:13:54;;;;;;;0.82;0.00;;;7.20;99.90;;;;;;5015371;28;20538;-76
2021/12/18 06:16:21;;;;;;;0.40;0.00;;;7.10;99.90;;;;;;4997973;28;20053;-76
2021/12/18 06:18:50;;;;;;;2.55;0.00;;;7.10;99.90;;;;;;5015358;28;20026;-76
2021/12/18 06:21:17;;;;;;;4.57;0.00;;;7.10;99.90;;;;;;5015522;28;20071;-76
2021/12/18 06:23:49;;;;;;;3.45;0.00;;;7.10;99.90;;;;;;5013788;28;20368;-76
2021/12/18 06:26:15;;;;;;;0.55;0.08;;;7.10;99.90;;;;;;5014764;28;20022;-75
2021/12/18 06:28:41;;;;;;;1.38;0.10;;;7.00;99.90;;;;;;5014186;28;20079;-76
2021/12/18 06:31:07;;;;;;;7.85;0.00;;;7.00;99.90;;;;;;4996847;28;20116;-75
2021/12/18 06:33:33;;;;;;;1.10;0.00;;;7.10;99.90;;;;;;4996776;28;20022;-75
2021/12/18 06:35:59;;;;;;;0.52;0.00;;;7.00;99.90;;;;;;4997033;28;20044;-76
2021/12/18 06:38:25;;;;;;;0.82;0.00;;;7.00;99.90;;;;;;5014416;28;20018;-76
2021/12/18 06:40:51;;;;;;;0.05;0.00;;;6.90;99.90;;;;;;4996385;28;20026;-75
2021/12/18 06:43:17;;;;;;;1.70;0.10;;;6.90;99.90;;;;;;5014365;28;20025;-76
2021/12/18 06:45:42;;;;;;;2.90;0.00;;;6.90;99.90;;;;;;5014479;28;20022;-76
2021/12/18 06:48:08;;;;;;;1.73;0.00;;;6.80;99.90;;;;;;5014739;28;20466;-76
2021/12/18 06:50:35;;;;;;;0.17;0.00;;;6.80;99.90;;;;;;4997082;28;20033;-76
2021/12/18 06:53:01;;;;;;;1.98;0.00;;;6.70;99.90;;;;;;5013970;28;20038;-76
2021/12/18 06:55:26;;;;;;;0.10;0.00;;;6.70;99.90;;;;;;5014698;28;20068;-75
2021/12/18 06:57:52;;;;;;;0.00;0.00;;;6.60;99.90;;;;;;5014226;28;20030;-77
2021/12/18 07:00:20;;;;;;;0.98;0.00;;;6.60;99.90;;;;;;4996808;28;20026;-76
2021/12/18 07:02:46;;;;;;;0.22;0.00;;;6.50;99.90;;;;;;5014561;28;20030;-75
2021/12/18 07:05:12;;;;;;;3.42;0.10;;;6.40;99.90;;;;;;5014149;28;20022;-75
2021/12/18 07:07:38;;;;;;;3.00;0.00;;;6.40;99.90;;;;;;5014376;28;20125;-76
2021/12/18 07:10:05;;;;;;;1.63;0.00;;;6.30;99.90;;;;;;5014228;28;20399;-76
2021/12/18 07:12:31;;;;;;;4.13;0.00;;;6.30;99.90;;;;;;5014187;28;20084;-76
2021/12/18 07:14:57;;;;;;;0.40;0.00;;;6.30;99.90;;;;;;5006952;28;20061;-77
2021/12/18 07:17:22;;;;;;;0.10;0.00;;;6.30;99.90;;;;;;4986561;28;20037;-76
2021/12/18 07:19:48;;;;;;;0.75;0.05;;;6.20;99.90;;;;;;5003832;28;20018;-76
2021/12/18 07:22:14;;;;;;;0.13;0.00;;;6.20;99.90;;;;;;5017178;28;20040;-76
2021/12/18 07:24:39;;;;;;;0.68;0.00;;;6.30;99.90;;;;;;5018689;28;20014;-76
2021/12/18 07:27:05;;;;;;;1.70;0.00;;;6.30;99.90;;;;;;5018728;28;20034;-75
2021/12/18 07:29:30;;;;;;;0.10;0.00;;;6.30;99.90;;;;;;5018168;28;20041;-76
2021/12/18 07:31:56;;;;;;;1.15;0.00;;;6.20;99.90;;;;;;5018381;28;20049;-76
2021/12/18 07:34:21;;;;;;;1.23;0.05;;;6.20;99.90;;;;;;5018378;28;20061;-76
2021/12/18 07:36:47;;;;;;;2.05;0.00;;;6.20;99.90;;;;;;5000718;28;20030;-76
2021/12/18 07:39:13;;;;;;;3.75;0.00;;;6.20;99.90;;;;;;5017973;28;20026;-76
2021/12/18 07:41:38;;;;;;;2.78;0.10;;;6.10;99.90;;;;;;5016976;28;20382;-76
2021/12/18 07:44:06;;;;;;;2.42;0.00;;;6.10;99.90;;;;;;5000139;28;20029;-75
2021/12/18 07:46:39;;;;;;;1.58;0.00;;;6.10;99.90;;;;;;5018288;28;20022;-76
2021/12/18 07:49:05;;;;;;;2.30;0.22;;;6.10;99.90;;;;;;5000413;28;20026;-76
2021/12/18 07:51:31;;;;;;;2.72;0.00;;;6.10;99.90;;;;;;5018342;28;20381;-76
2021/12/18 07:53:57;;;;;;;1.88;0.10;;;6.20;99.90;;;;;;5018117;28;20032;-76
2021/12/18 07:56:24;;;;;;;0.20;0.00;;;6.20;99.90;;;;;;5016496;28;20120;-76
2021/12/18 07:58:50;;;;;;;2.72;0.00;;;6.20;99.90;;;;;;5015887;28;20036;-76
2021/12/18 08:01:16;;;;;;;2.17;0.00;;;6.10;99.90;;;;;;5017476;28;20022;-76
2021/12/18 08:03:41;;;;;;;2.40;0.20;;;6.10;99.90;;;;;;5016791;28;20080;-76
2021/12/18 08:06:07;;;;;;;1.65;0.00;;;6.10;99.90;;;;;;5017280;28;20537;-76
2021/12/18 08:08:33;;;;;;;0.80;0.00;;;6.10;99.90;;;;;;5016504;28;20033;-76
2021/12/18 08:10:58;;;;;;;1.42;0.00;;;6.10;99.90;;;;;;5017518;28;20022;-75
2021/12/18 08:13:24;;;;;;;1.75;0.00;;;6.10;99.90;;;;;;5017053;28;20022;-76
2021/12/18 08:15:49;;;;;;;0.65;0.00;;;6.10;99.90;;;;;;5017074;28;20021;-76
2021/12/18 08:18:15;;;;;;;3.03;0.03;;;6.10;99.90;;;;;;5017912;28;20053;-76
2021/12/18 08:20:41;;;;;;;4.05;0.00;;;6.10;99.90;;;;;;5017458;28;20022;-76
2021/12/18 08:23:07;;;;;;;0.28;0.03;;;6.10;99.90;;;;;;5017888;28;20032;-76
2021/12/18 08:25:34;;;;;;;2.35;0.00;;;6.10;99.90;;;;;;5017547;28;20026;-76
2021/12/18 08:28:00;;;;;;;0.20;0.00;;;6.10;99.90;;;;;;5016057;28;20116;-75
2021/12/18 08:30:28;;;;;;;0.40;0.00;;;6.10;99.90;;;;;;5016584;28;20564;-77
2021/12/18 08:32:53;;;;;;;0.10;0.00;;;6.10;99.90;;;;;;5017186;28;20030;-76
2021/12/18 08:35:19;;;;;;;1.70;0.00;;;6.10;99.90;;;;;;5017377;28;20033;-76
2021/12/18 08:37:45;;;;;;;0.08;0.00;;;6.10;99.90;;;;;;5016588;28;20387;-76
2021/12/18 08:40:11;;;;;;;0.47;0.00;;;6.10;99.90;;;;;;5016687;28;20017;-76
2021/12/18 08:42:37;;;;;;;0.00;0.00;;;6.10;99.90;;;;;;5016713;28;20104;-76
2021/12/18 08:45:04;;;;;;;0.10;0.00;;;6.10;99.90;;;;;;4997568;28;20049;-76
2021/12/18 08:47:30;;;;;;;0.20;0.00;;;6.10;99.90;;;;;;5014447;28;20034;-76
2021/12/18 08:49:55;;;;;;;0.28;0.00;;;6.10;99.90;;;;;;5016331;28;20100;-76
2021/12/18 08:52:21;;;;;;;0.10;0.00;;;6.20;99.90;;;;;;5016847;28;20091;-75
2021/12/18 08:54:48;;;;;;;0.98;0.00;;;6.20;99.90;;;;;;4998926;28;20018;-76
2021/12/18 08:57:14;;;;;;;1.42;0.00;;;6.20;99.90;;;;;;5015194;28;20022;-76
2021/12/18 08:59:39;;;;;;;0.20;0.00;;;6.20;99.90;;;;;;5016534;28;20022;-75
2021/12/18 09:02:09;;;;;;;0.08;0.00;;;6.20;99.90;;;;;;5016381;28;20131;-76
2021/12/18 09:04:36;;;;;;;0.68;0.00;;;6.20;99.90;;;;;;5016817;28;20026;-76
2021/12/18 09:07:03;;;;;;;0.00;0.00;;;6.20;99.90;;;;;;4999039;28;20030;-76
2021/12/18 09:09:29;;;;;;;0.20;0.03;;;6.30;99.90;;;;;;5016033;28;20036;-76
2021/12/18 09:11:54;;;;;;;0.17;0.00;;;6.30;99.90;;;;;;5016269;28;20427;-76
2021/12/18 09:14:20;;;;;;;0.40;0.00;;;6.30;99.90;;;;;;4998216;28;20057;-75
2021/12/18 09:16:45;;;;;;;0.57;0.00;;;6.30;99.90;;;;;;5016954;28;20034;-77
2021/12/18 09:19:12;;;;;;;0.43;0.00;;;6.30;99.90;;;;;;5011780;28;20029;-76
2021/12/18 09:21:38;;;;;;;0.20;0.00;;;6.30;99.90;;;;;;5015796;28;20018;-76
2021/12/18 09:24:03;;;;;;;0.00;0.00;;;6.40;99.90;;;;;;5015943;28;20096;-75
2021/12/18 09:26:29;;;;;;;0.50;0.00;;;6.40;99.90;;;;;;5015910;28;20101;-76
2021/12/18 09:28:55;;;;;;;0.13;0.00;;;6.40;99.90;;;;;;5016035;28;20076;-77
2021/12/18 09:31:20;;;;;;;0.10;0.00;;;6.40;99.90;;;;;;5014540;28;20037;-76
2021/12/18 09:33:46;;;;;;;1.38;0.00;;;6.40;99.90;;;;;;5015691;28;20036;-76
2021/12/18 09:36:12;;;;;;;0.28;0.00;;;6.40;99.90;;;;;;5016271;28;20458;-76
2021/12/18 09:38:38;;;;;;;2.08;0.00;;;6.40;99.90;;;;;;5014019;28;20042;-77
2021/12/18 09:41:03;;;;;;;1.65;0.00;;;6.40;99.90;;;;;;5014058;28;20501;-77
2021/12/18 09:43:29;;;;;;;0.20;0.00;;;6.30;99.90;;;;;;4998119;28;20028;-76
2021/12/18 09:46:02;;;;;;;0.40;0.00;;;6.30;99.90;;;;;;4997704;28;20106;-77
2021/12/18 09:48:29;;;;;;;2.13;0.10;;;6.40;99.90;;;;;;5014146;28;20033;-76
2021/12/18 09:50:57;;;;;;;0.30;0.00;;;6.40;99.90;;;;;;5015317;28;20045;-77
2021/12/18 09:53:23;;;;;;;0.65;0.00;;;6.50;99.90;;;;;;5013951;28;20033;-77
2021/12/18 09:55:48;;;;;;;0.45;0.10;;;6.50;99.90;;;;;;5014376;28;20025;-77
2021/12/18 09:58:17;;;;;;;0.00;0.00;;;6.50;99.90;;;;;;4997393;28;20061;-76
2021/12/18 10:00:43;;;;;;;1.95;0.40;;;6.50;99.90;;;;;;5015363;28;20418;-77
2021/12/18 10:03:08;;;;;;;0.00;0.00;;;6.50;99.90;;;;;;5015046;28;20061;-76
2021/12/18 10:05:35;;;;;;;0.20;0.00;;;6.40;99.90;;;;;;5014670;28;20024;-76
2021/12/18 10:08:11;;;;;;;0.30;0.00;;;6.40;99.90;;;;;;5013638;28;20061;-77
2021/12/18 10:10:38;;;;;;;0.00;0.00;;;6.40;99.90;;;;;;5015064;28;20030;-76
2021/12/18 10:13:07;;;;;;;0.10;0.00;;;6.40;99.90;;;;;;5013740;28;20026;-77
2021/12/18 10:15:33;;;;;;;;;;;6.40;99.90;;;;;;5015417;28;20060;-77
2021/12/18 10:18:12;;;;;;;0.10;0.00;;;6.30;99.90;;;;;;5014094;28;19960;-77
2021/12/18 10:20:38;;;;;;;0.05;0.00;;;6.30;99.90;;;;;;5014676;28;20077;-76
2021/12/18 10:23:05;;;;;;;1.48;0.00;;;6.30;99.90;;;;;;5014612;28;20049;-76
2021/12/18 10:25:40;;;;;;;1.90;0.00;;;6.30;99.90;;;;;;4996891;28;20022;-76
2021/12/18 10:28:19;;;;;;;2.63;0.00;;;6.30;99.90;;;;;;5014695;28;20026;-76
2021/12/18 10:30:50;;;;;;;0.25;0.00;;;6.40;99.90;;;;;;5015119;28;20033;-76
2021/12/18 10:33:16;;;;;;;0.28;0.00;;;6.40;99.90;;;;;;4996478;28;20034;-75
2021/12/18 10:35:53;;;;;;;0.10;0.00;;;6.40;99.90;;;;;;5014180;28;20037;-75
2021/12/18 10:38:48;;;;;;;0.00;0.00;;;6.50;99.90;;;;;;5013214;28;20030;-76
2021/12/18 10:41:40;;;;;;;0.00;0.00;;;6.50;99.90;;;;;;5014101;28;20022;-77
2021/12/18 10:44:11;;;;;;;0.00;0.00;;;6.60;99.90;;;;;;5008426;28;20034;-75
2021/12/18 10:46:39;;;;;;;0.10;0.00;;;6.70;99.90;;;;;;5012692;28;20418;-75
2021/12/18 10:49:16;;;;;;;2.72;0.00;;;6.70;99.90;;;;;;4996087;28;20018;-75
2021/12/18 10:51:45;;;;;;;0.13;0.00;;;6.80;99.90;;;;;;5012758;28;20117;-75
2021/12/18 10:54:19;;;;;;;0.22;0.00;;;6.80;99.90;;;;;;4996158;28;20072;-75
2021/12/18 10:56:51;;;;;;;0.68;0.00;;;6.80;99.90;;;;;;5014493;28;20029;-75
2021/12/18 10:59:31;;;;;;;0.10;0.00;;;7.10;99.90;;;;;;4996163;28;20164;-75
2021/12/18 11:02:02;;;;;;;0.20;0.00;;;6.90;99.90;;;;;;5013471;28;20030;-75
2021/12/18 11:04:32;;;;;;;0.20;0.00;;;6.90;99.90;;;;;;4996447;28;20025;-76
2021/12/18 11:06:58;;;;;;;0.10;0.00;;;6.80;99.90;;;;;;5014110;28;20033;-75
2021/12/18 11:09:30;;;;;;;0.55;0.00;;;6.80;99.90;;;;;;5013305;28;20022;-75
2021/12/18 11:14:34;;;;;;;0.82;0.10;;;6.70;99.90;;;;;;5014999;28;20033;-74
2021/12/18 11:17:03;;;;;;;0.68;0.10;;;6.70;99.90;;;;;;5013794;28;20033;-75
2021/12/18 11:19:31;;;;;;;0.40;0.10;;;6.80;99.90;;;;;;5014161;28;20018;-75
2021/12/18 11:21:57;;;;;;;1.02;0.00;;;6.80;99.90;;;;;;5013819;28;20022;-75
2021/12/18 11:24:49;;;;;;;0.30;0.00;;;6.80;99.90;;;;;;4997116;28;20466;-75
2021/12/18 11:27:17;;;;;;;0.15;0.00;;;6.90;99.90;;;;;;4996406;28;20532;-75
2021/12/18 11:29:56;;;;;;;0.00;0.00;;;6.90;99.90;;;;;;5014147;28;20026;-75
2021/12/18 11:32:27;;;;;;;0.13;0.00;;;6.90;99.90;;;;;;5014122;28;20026;-75
2021/12/18 11:34:55;;;;;;;0.57;0.00;;;7.00;99.90;;;;;;5013953;28;20022;-75
2021/12/18 11:37:22;;;;;;;0.10;0.00;;;7.00;99.90;;;;;;5013702;28;20080;-75
2021/12/18 11:39:50;;;;;;;1.05;0.10;;;7.00;99.90;;;;;;5013819;28;20029;-75
2021/12/18 11:42:17;;;;;;;0.20;0.00;;;7.00;99.90;;;;;;5012954;28;20026;-75
2021/12/18 11:44:52;;;;;;;0.28;0.00;;;7.00;99.90;;;;;;5013044;28;20026;-75
2021/12/18 11:47:37;;;;;;;6.38;0.00;;;7.00;99.90;;;;;;5012667;28;20076;-74
2021/12/18 11:50:19;;;;;;;0.40;0.00;;;7.00;99.90;;;;;;4996093;28;20014;-75
2021/12/18 11:53:05;;;;;;;0.30;0.00;;;7.00;99.90;;;;;;5014023;28;20065;-76
2021/12/18 11:55:37;;;;;;;0.00;0.00;;;7.00;99.90;;;;;;5013903;28;20529;-75
2021/12/18 11:58:42;;;;;;;0.20;0.00;;;7.10;99.90;;;;;;5014099;28;20026;-75
2021/12/18 12:01:25;;;;;;;0.20;0.10;;;7.10;99.90;;;;;;4896421;29;20040;-75
2021/12/18 12:03:50;;;;;;;0.00;0.00;;;7.20;99.90;;;;;;4902573;29;20020;-75
2021/12/18 12:06:19;;;;;;;0.65;0.00;;;7.20;99.90;;;;;;4959704;28;20045;-75
2021/12/18 12:08:51;;;;;;;0.10;0.00;;;7.30;99.90;;;;;;4999616;28;20372;-75
2021/12/18 12:11:23;;;;;;;0.00;0.00;;;7.40;99.90;;;;;;5017939;28;20482;-75
2021/12/18 12:13:55;;;;;;;0.35;0.00;;;7.40;99.90;;;;;;5017207;28;20097;-75
2021/12/18 12:16:42;;;;;;;0.00;0.00;;;7.40;99.90;;;;;;4999428;28;20026;-75
2021/12/18 12:19:09;;;;;;;0.00;0.00;;;7.40;99.90;;;;;;5017446;28;20026;-75
2021/12/18 12:21:45;;;;;;;0.40;0.00;;;7.40;99.90;;;;;;5017257;28;20140;-75
2021/12/18 12:24:12;;;;;;;0.45;0.00;;;7.50;99.90;;;;;;4999255;28;20363;-75
2021/12/18 12:26:38;;;;;;;0.85;0.00;;;7.40;99.90;;;;;;5016363;28;20022;-75
2021/12/18 12:29:06;;;;;;;0.00;0.00;;;7.40;99.90;;;;;;4998719;28;20032;-75
2021/12/18 12:31:32;;;;;;;0.15;0.00;;;7.40;99.90;;;;;;4999247;28;20503;-75
2021/12/18 12:34:22;;;;;;;0.25;0.00;;;7.40;99.90;;;;;;5015680;28;20025;-75
2021/12/18 12:36:49;;;;;;;0.52;0.00;;;7.40;99.90;;;;;;5017332;28;20083;-76
2021/12/18 12:39:15;;;;;;;0.35;0.00;;;7.40;99.90;;;;;;5016335;28;20057;-75
2021/12/18 12:41:50;;;;;;;1.50;0.00;;;7.30;99.90;;;;;;5016124;28;20026;-76
2021/12/18 12:44:40;;;;;;;0.13;0.00;;;7.40;99.90;;;;;;5016797;28;20022;-76
2021/12/18 12:47:27;;;;;;;0.03;0.00;;;7.40;99.90;;;;;;4999202;28;20026;-75
2021/12/18 12:49:54;;;;;;;0.10;0.10;;;7.50;99.90;;;;;;5016537;28;20026;-75
2021/12/18 12:52:25;;;;;;;0.30;0.00;;;7.50;99.90;;;;;;5015971;28;20030;-75
2021/12/18 12:55:06;;;;;;;0.20;0.10;;;7.50;99.90;;;;;;4998949;28;20200;-75
2021/12/18 12:57:38;;;;;;;0.10;0.00;;;7.50;99.90;;;;;;4998283;28;20022;-75
2021/12/18 13:00:06;;;;;;;0.43;0.10;;;7.50;99.90;;;;;;5016299;28;20434;-76
2021/12/18 13:02:38;;;;;;;0.10;0.00;;;7.50;99.90;;;;;;5016672;28;20026;-75
2021/12/18 13:05:10;;;;;;;0.30;0.00;;;7.50;99.90;;;;;;4998219;28;20498;-76
2021/12/18 13:07:48;;;;;;;0.25;0.00;;;7.50;99.90;;;;;;4998128;28;20026;-75
2021/12/18 13:10:22;;;;;;;0.15;0.10;;;7.40;99.90;;;;;;4998118;28;20551;-75
2021/12/18 13:12:54;;;;;;;0.13;0.00;;;7.40;99.90;;;;;;5015402;28;20371;-75
2021/12/18 13:15:20;;;;;;;0.50;0.00;;;7.30;99.90;;;;;;5014391;28;20746;-75
2021/12/18 13:17:47;;;;;;;0.15;0.00;;;7.30;99.90;;;;;;5014554;28;20025;-75
2021/12/18 13:20:13;;;;;;;0.05;0.00;;;7.40;99.90;;;;;;5013313;28;20026;-75
2021/12/18 13:22:39;;;;;;;1.30;0.00;;;7.40;99.90;;;;;;5015008;28;20018;-74
2021/12/18 13:25:13;;;;;;;0.20;0.00;;;7.40;99.90;;;;;;5015372;28;20021;-75
2021/12/18 13:27:42;;;;;;;1.00;0.00;;;7.50;99.90;;;;;;5016115;28;20513;-75
2021/12/18 13:30:13;;;;;;;0.20;0.00;;;7.60;99.90;;;;;;5015418;28;20468;-75
2021/12/18 13:32:50;;;;;;;0.25;0.00;;;7.60;99.90;;;;;;5015681;28;20104;-75
2021/12/18 13:35:16;;;;;;;0.25;0.00;;;7.70;99.90;;;;;;5015361;28;20119;-75
2021/12/18 13:37:42;;;;;;;1.35;0.00;;;7.70;99.90;;;;;;5014063;28;20457;-75
2021/12/18 13:40:16;;;;;;;2.45;0.00;;;7.70;99.90;;;;;;5015415;28;20121;-75
2021/12/18 13:42:42;;;;;;;0.38;0.00;;;7.60;99.90;;;;;;5014975;28;20032;-75
2021/12/18 13:45:08;;;;;;;0.28;0.00;;;7.60;99.90;;;;;;4997532;28;20117;-75